Bookmark and Share
Track history (hours):
 

Callsign AMOUK21 (name unknown)

Last reported at 2014-Feb-14 12:00 UTC. Time now 2014-Apr-21 10:15 UTC.
Position N 58°00' W 005°42'.
Warning: this ship's position is months out of date.

Barometer 985.8 mb

NotesDate/timePositionNaut miles runAvg speedWind from/ knotsBaromVisibWave heightAir tempDewpointWater temp
2014-Feb-14 12:00N 58°00' W 005°42'1717.0 985.8
2014-Feb-14 11:00N 57°54' W 005°12'0 0.0 986.5
2014-Feb-14 10:00N 57°54' W 005°12'1414.1 986.9
2014-Feb-14 09:00N 58°00' W 005°36'1717.0 985.8
2014-Feb-14 08:00N 58°06' W 006°06'1111.2 985.5
2014-Feb-14 07:00N 58°12' W 006°24'0 0.0 985.3
2014-Feb-14 06:00N 58°12' W 006°24'0 0.0 985.1
2014-Feb-14 05:00N 58°12' W 006°24'0 0.0 984.4
2014-Feb-14 04:00N 58°12' W 006°24'0 0.0 983.8
2014-Feb-14 03:00N 58°12' W 006°24'0 0.0 983.7
2014-Feb-14 02:00N 58°12' W 006°24'0 0.0 983.2
2014-Feb-14 01:00N 58°12' W 006°24'0 0.0 982.3
2014-Feb-14 00:00N 58°12' W 006°24'0 0.0 981.4
2014-Feb-13 23:00N 58°12' W 006°24'0 0.0 980.1 2.8 1.4
2014-Feb-13 22:00N 58°12' W 006°24'1111.2 978.6
2014-Feb-13 21:00N 58°06' W 006°06'1717.0 976.7
2014-Feb-13 20:00N 58°00' W 005°36'1414.1 974.9
2014-Feb-13 19:00N 57°54' W 005°12'0 0.0 971.7
2014-Feb-13 18:00N 57°54' W 005°12'10 9.6 971.7
2014-Feb-13 17:00N 57°54' W 005°30'1717.5 970.9
2014-Feb-13 16:00N 58°06' W 005°54'1716.9 969.6
2014-Feb-13 15:00N 58°12' W 006°24'3 3.2 968.8
2014-Feb-13 14:00N 58°12' W 006°18'1414.0 967.5
2014-Feb-13 13:00N 58°06' W 005°54'1717.5 966.3
2014-Feb-13 12:00N 57°54' W 005°30'10 9.6 965.9
2014-Feb-13 11:00N 57°54' W 005°12'3 3.2 965.3
2014-Feb-13 10:00N 57°54' W 005°18'1414.1 963.9
2014-Feb-13 09:00N 58°00' W 005°42'1717.0 963.2
2014-Feb-13 08:00N 58°06' W 006°12'9 2.2 962.2
2014-Feb-13 04:00N 58°12' W 006°24'0 0.0 960.1 3.6 2.5
2014-Feb-13 03:00N 58°12' W 006°24'0 0.0 960.0 4.2 2.8
2014-Feb-13 02:00N 58°12' W 006°24'0 0.0 959.8
2014-Feb-13 01:00N 58°12' W 006°24'0 0.0 960.2
2014-Feb-13 00:00N 58°12' W 006°24'0 0.0 960.1
2014-Feb-12 23:00N 58°12' W 006°24'0 0.0 960.2
2014-Feb-12 22:00N 58°12' W 006°24'0 0.0 960.3
2014-Feb-12 21:00N 58°12' W 006°24'1414.0 960.7
2014-Feb-12 20:00N 58°06' W 006°00'1414.0 960.4
2014-Feb-12 19:00N 58°00' W 005°36'1414.1 961.0
2014-Feb-12 18:00N 57°54' W 005°12'3 3.2 962.1
2014-Feb-12 17:00N 57°54' W 005°18'   963.2

Dump ship's entire track history

sailing weather and tide predictions

Ship Status Report: callsign AMOUK21